sensor_id;sensor_type;location;lat;lon;timestamp;P1;durP1;ratioP1;P2;durP2;ratioP2
37647;SDS011;23490;53.656;10.076;2023-03-01T00:01:09;29.23;;;12.63;;
37647;SDS011;23490;53.656;10.076;2023-03-01T00:03:36;28.65;;;13.05;;
37647;SDS011;23490;53.656;10.076;2023-03-01T00:06:02;32.65;;;12.68;;
37647;SDS011;23490;53.656;10.076;2023-03-01T00:08:28;26.80;;;11.70;;
37647;SDS011;23490;53.656;10.076;2023-03-01T00:11:17;26.23;;;12.25;;
37647;SDS011;23490;53.656;10.076;2023-03-01T00:13:42;25.73;;;10.82;;
37647;SDS011;23490;53.656;10.076;2023-03-01T00:16:13;26.63;;;11.35;;
37647;SDS011;23490;53.656;10.076;2023-03-01T00:18:40;23.45;;;10.65;;
37647;SDS011;23490;53.656;10.076;2023-03-01T00:21:06;24.70;;;11.45;;
37647;SDS011;23490;53.656;10.076;2023-03-01T00:23:33;26.63;;;12.02;;
37647;SDS011;23490;53.656;10.076;2023-03-01T00:25:59;27.17;;;10.85;;
37647;SDS011;23490;53.656;10.076;2023-03-01T00:28:25;24.08;;;10.25;;
37647;SDS011;23490;53.656;10.076;2023-03-01T00:30:50;23.88;;;10.93;;
37647;SDS011;23490;53.656;10.076;2023-03-01T00:33:15;25.23;;;10.80;;
37647;SDS011;23490;53.656;10.076;2023-03-01T00:35:41;27.45;;;12.00;;
37647;SDS011;23490;53.656;10.076;2023-03-01T00:38:06;27.08;;;10.95;;
37647;SDS011;23490;53.656;10.076;2023-03-01T00:40:32;23.52;;;11.18;;
37647;SDS011;23490;53.656;10.076;2023-03-01T00:42:59;26.55;;;11.13;;
37647;SDS011;23490;53.656;10.076;2023-03-01T00:45:25;22.67;;;10.25;;
37647;SDS011;23490;53.656;10.076;2023-03-01T00:47:50;28.73;;;11.73;;
37647;SDS011;23490;53.656;10.076;2023-03-01T00:50:16;26.80;;;10.93;;
37647;SDS011;23490;53.656;10.076;2023-03-01T00:52:42;20.60;;;10.63;;
37647;SDS011;23490;53.656;10.076;2023-03-01T00:55:09;25.42;;;10.80;;
37647;SDS011;23490;53.656;10.076;2023-03-01T00:57:34;24.20;;;10.75;;
37647;SDS011;23490;53.656;10.076;2023-03-01T01:00:00;22.90;;;11.15;;
37647;SDS011;23490;53.656;10.076;2023-03-01T01:02:25;21.95;;;11.35;;
37647;SDS011;23490;53.656;10.076;2023-03-01T01:04:51;24.00;;;10.30;;
37647;SDS011;23490;53.656;10.076;2023-03-01T01:07:16;24.40;;;11.02;;
37647;SDS011;23490;53.656;10.076;2023-03-01T01:09:42;23.50;;;10.27;;
37647;SDS011;23490;53.656;10.076;2023-03-01T01:12:08;20.77;;;9.73;;
37647;SDS011;23490;53.656;10.076;2023-03-01T01:14:34;22.02;;;10.32;;
37647;SDS011;23490;53.656;10.076;2023-03-01T01:17:00;19.02;;;9.82;;
37647;SDS011;23490;53.656;10.076;2023-03-01T01:19:25;23.00;;;10.73;;
37647;SDS011;23490;53.656;10.076;2023-03-01T01:21:51;21.30;;;10.07;;
37647;SDS011;23490;53.656;10.076;2023-03-01T01:24:16;21.70;;;9.70;;
37647;SDS011;23490;53.656;10.076;2023-03-01T01:26:42;22.95;;;9.35;;
37647;SDS011;23490;53.656;10.076;2023-03-01T01:29:08;23.38;;;9.95;;
37647;SDS011;23490;53.656;10.076;2023-03-01T01:31:34;18.63;;;9.23;;
37647;SDS011;23490;53.656;10.076;2023-03-01T01:34:02;23.35;;;9.77;;
37647;SDS011;23490;53.656;10.076;2023-03-01T01:36:29;19.52;;;8.88;;
37647;SDS011;23490;53.656;10.076;2023-03-01T01:38:55;21.83;;;9.85;;
37647;SDS011;23490;53.656;10.076;2023-03-01T01:41:22;21.38;;;9.10;;
37647;SDS011;23490;53.656;10.076;2023-03-01T01:46:55;18.87;;;8.13;;
37647;SDS011;23490;53.656;10.076;2023-03-01T01:49:31;19.60;;;8.73;;
37647;SDS011;23490;53.656;10.076;2023-03-01T01:52:03;20.83;;;8.55;;
37647;SDS011;23490;53.656;10.076;2023-03-01T01:54:50;18.45;;;9.00;;
37647;SDS011;23490;53.656;10.076;2023-03-01T01:57:26;22.48;;;8.60;;
37647;SDS011;23490;53.656;10.076;2023-03-01T01:59:56;19.77;;;8.70;;
37647;SDS011;23490;53.656;10.076;2023-03-01T02:02:25;21.30;;;8.70;;
37647;SDS011;23490;53.656;10.076;2023-03-01T02:04:53;18.83;;;10.05;;
37647;SDS011;23490;53.656;10.076;2023-03-01T02:07:26;19.00;;;9.23;;
37647;SDS011;23490;53.656;10.076;2023-03-01T02:09:52;21.10;;;9.23;;
37647;SDS011;23490;53.656;10.076;2023-03-01T02:12:19;20.13;;;8.98;;
37647;SDS011;23490;53.656;10.076;2023-03-01T02:14:47;19.48;;;9.73;;
37647;SDS011;23490;53.656;10.076;2023-03-01T02:17:13;22.05;;;8.45;;
37647;SDS011;23490;53.656;10.076;2023-03-01T02:22:24;19.17;;;9.07;;
37647;SDS011;23490;53.656;10.076;2023-03-01T02:30:44;15.45;;;7.45;;
37647;SDS011;23490;53.656;10.076;2023-03-01T02:33:30;16.80;;;7.95;;
37647;SDS011;23490;53.656;10.076;2023-03-01T02:35:58;20.98;;;8.50;;
37647;SDS011;23490;53.656;10.076;2023-03-01T02:38:26;15.85;;;7.75;;
37647;SDS011;23490;53.656;10.076;2023-03-01T02:40:52;15.23;;;7.20;;
37647;SDS011;23490;53.656;10.076;2023-03-01T02:43:20;20.02;;;7.80;;
37647;SDS011;23490;53.656;10.076;2023-03-01T02:45:50;16.37;;;7.73;;
37647;SDS011;23490;53.656;10.076;2023-03-01T02:48:18;16.38;;;8.43;;
37647;SDS011;23490;53.656;10.076;2023-03-01T02:50:47;16.15;;;7.85;;
37647;SDS011;23490;53.656;10.076;2023-03-01T02:53:35;20.33;;;8.52;;
37647;SDS011;23490;53.656;10.076;2023-03-01T02:56:03;19.17;;;7.95;;
37647;SDS011;23490;53.656;10.076;2023-03-01T02:58:29;17.80;;;7.93;;
37647;SDS011;23490;53.656;10.076;2023-03-01T03:00:54;17.75;;;9.30;;
37647;SDS011;23490;53.656;10.076;2023-03-01T03:03:20;21.98;;;9.00;;
37647;SDS011;23490;53.656;10.076;2023-03-01T03:05:46;19.42;;;8.65;;
37647;SDS011;23490;53.656;10.076;2023-03-01T03:08:13;18.17;;;8.70;;
37647;SDS011;23490;53.656;10.076;2023-03-01T03:10:41;21.35;;;9.23;;
37647;SDS011;23490;53.656;10.076;2023-03-01T03:13:12;15.55;;;8.48;;
37647;SDS011;23490;53.656;10.076;2023-03-01T03:15:39;19.27;;;8.35;;
37647;SDS011;23490;53.656;10.076;2023-03-01T03:18:08;19.63;;;9.15;;
37647;SDS011;23490;53.656;10.076;2023-03-01T03:20:35;16.70;;;8.40;;
37647;SDS011;23490;53.656;10.076;2023-03-01T03:23:01;17.13;;;8.25;;
37647;SDS011;23490;53.656;10.076;2023-03-01T03:25:27;41.25;;;14.93;;
37647;SDS011;23490;53.656;10.076;2023-03-01T03:27:54;36.53;;;15.15;;
37647;SDS011;23490;53.656;10.076;2023-03-01T03:30:27;27.00;;;10.10;;
37647;SDS011;23490;53.656;10.076;2023-03-01T03:32:54;16.77;;;8.80;;
37647;SDS011;23490;53.656;10.076;2023-03-01T03:35:43;25.40;;;8.80;;
37647;SDS011;23490;53.656;10.076;2023-03-01T03:38:09;17.08;;;7.68;;
37647;SDS011;23490;53.656;10.076;2023-03-01T03:40:41;14.60;;;7.60;;
37647;SDS011;23490;53.656;10.076;2023-03-01T03:43:18;17.15;;;8.48;;
37647;SDS011;23490;53.656;10.076;2023-03-01T03:45:46;17.05;;;8.88;;
37647;SDS011;23490;53.656;10.076;2023-03-01T03:48:14;20.48;;;8.82;;
37647;SDS011;23490;53.656;10.076;2023-03-01T03:50:40;16.92;;;8.18;;
37647;SDS011;23490;53.656;10.076;2023-03-01T03:53:08;15.48;;;7.90;;
37647;SDS011;23490;53.656;10.076;2023-03-01T03:55:34;17.67;;;7.60;;
37647;SDS011;23490;53.656;10.076;2023-03-01T03:58:01;18.88;;;8.40;;
37647;SDS011;23490;53.656;10.076;2023-03-01T04:00:32;15.35;;;8.18;;
37647;SDS011;23490;53.656;10.076;2023-03-01T04:02:59;13.38;;;7.38;;
37647;SDS011;23490;53.656;10.076;2023-03-01T04:05:25;14.60;;;7.43;;
37647;SDS011;23490;53.656;10.076;2023-03-01T04:07:51;15.85;;;7.95;;
37647;SDS011;23490;53.656;10.076;2023-03-01T04:10:26;15.98;;;7.85;;
37647;SDS011;23490;53.656;10.076;2023-03-01T04:12:52;17.90;;;7.43;;
37647;SDS011;23490;53.656;10.076;2023-03-01T04:15:18;12.75;;;6.68;;
37647;SDS011;23490;53.656;10.076;2023-03-01T04:17:44;16.80;;;7.05;;
37647;SDS011;23490;53.656;10.076;2023-03-01T04:20:12;13.32;;;6.75;;
37647;SDS011;23490;53.656;10.076;2023-03-01T04:22:49;16.80;;;7.30;;
37647;SDS011;23490;53.656;10.076;2023-03-01T04:25:16;15.10;;;7.53;;
37647;SDS011;23490;53.656;10.076;2023-03-01T04:27:41;15.30;;;7.30;;
37647;SDS011;23490;53.656;10.076;2023-03-01T04:30:09;13.75;;;7.25;;
37647;SDS011;23490;53.656;10.076;2023-03-01T04:32:35;16.38;;;7.10;;
37647;SDS011;23490;53.656;10.076;2023-03-01T04:35:00;15.85;;;7.07;;
37647;SDS011;23490;53.656;10.076;2023-03-01T04:37:26;17.13;;;8.85;;
37647;SDS011;23490;53.656;10.076;2023-03-01T04:39:52;16.35;;;7.43;;
37647;SDS011;23490;53.656;10.076;2023-03-01T04:42:17;25.10;;;7.55;;
37647;SDS011;23490;53.656;10.076;2023-03-01T04:44:44;17.20;;;7.60;;
37647;SDS011;23490;53.656;10.076;2023-03-01T04:47:10;16.35;;;7.18;;
37647;SDS011;23490;53.656;10.076;2023-03-01T04:49:35;13.48;;;7.13;;
37647;SDS011;23490;53.656;10.076;2023-03-01T04:52:00;16.38;;;7.55;;
37647;SDS011;23490;53.656;10.076;2023-03-01T04:54:32;17.70;;;7.47;;
37647;SDS011;23490;53.656;10.076;2023-03-01T04:56:58;16.40;;;7.47;;
37647;SDS011;23490;53.656;10.076;2023-03-01T04:59:24;13.27;;;6.82;;
37647;SDS011;23490;53.656;10.076;2023-03-01T05:01:51;12.77;;;7.13;;
37647;SDS011;23490;53.656;10.076;2023-03-01T05:04:17;15.90;;;7.30;;
37647;SDS011;23490;53.656;10.076;2023-03-01T05:06:42;13.68;;;7.00;;
37647;SDS011;23490;53.656;10.076;2023-03-01T05:09:08;15.00;;;6.85;;
37647;SDS011;23490;53.656;10.076;2023-03-01T05:11:33;14.43;;;6.57;;
37647;SDS011;23490;53.656;10.076;2023-03-01T05:14:04;13.25;;;7.40;;
37647;SDS011;23490;53.656;10.076;2023-03-01T05:16:31;15.45;;;6.82;;
37647;SDS011;23490;53.656;10.076;2023-03-01T05:18:57;16.77;;;7.78;;
37647;SDS011;23490;53.656;10.076;2023-03-01T05:21:23;13.27;;;6.57;;
37647;SDS011;23490;53.656;10.076;2023-03-01T05:23:50;13.45;;;6.82;;
37647;SDS011;23490;53.656;10.076;2023-03-01T05:26:16;15.45;;;6.63;;
37647;SDS011;23490;53.656;10.076;2023-03-01T05:28:43;19.70;;;7.90;;
37647;SDS011;23490;53.656;10.076;2023-03-01T05:31:09;14.63;;;6.53;;
37647;SDS011;23490;53.656;10.076;2023-03-01T05:33:38;15.13;;;6.88;;
37647;SDS011;23490;53.656;10.076;2023-03-01T05:36:04;14.83;;;6.43;;
37647;SDS011;23490;53.656;10.076;2023-03-01T05:41:00;12.38;;;6.25;;
37647;SDS011;23490;53.656;10.076;2023-03-01T05:43:25;11.75;;;6.40;;
37647;SDS011;23490;53.656;10.076;2023-03-01T05:45:51;14.80;;;6.50;;
37647;SDS011;23490;53.656;10.076;2023-03-01T05:48:16;12.20;;;6.55;;
37647;SDS011;23490;53.656;10.076;2023-03-01T05:50:44;15.98;;;6.57;;
37647;SDS011;23490;53.656;10.076;2023-03-01T05:53:13;13.13;;;6.63;;
37647;SDS011;23490;53.656;10.076;2023-03-01T05:55:44;15.27;;;7.50;;
37647;SDS011;23490;53.656;10.076;2023-03-01T05:58:16;11.90;;;6.68;;
37647;SDS011;23490;53.656;10.076;2023-03-01T06:00:44;12.77;;;6.72;;
37647;SDS011;23490;53.656;10.076;2023-03-01T06:03:11;15.07;;;6.75;;
37647;SDS011;23490;53.656;10.076;2023-03-01T06:05:38;12.85;;;5.95;;
37647;SDS011;23490;53.656;10.076;2023-03-01T06:08:04;13.48;;;6.35;;
37647;SDS011;23490;53.656;10.076;2023-03-01T06:10:30;13.40;;;6.80;;
37647;SDS011;23490;53.656;10.076;2023-03-01T06:12:55;12.88;;;6.53;;
37647;SDS011;23490;53.656;10.076;2023-03-01T06:15:21;13.43;;;6.40;;
37647;SDS011;23490;53.656;10.076;2023-03-01T06:17:47;13.00;;;6.95;;
37647;SDS011;23490;53.656;10.076;2023-03-01T06:20:18;12.82;;;6.72;;
37647;SDS011;23490;53.656;10.076;2023-03-01T06:22:45;13.38;;;6.03;;
37647;SDS011;23490;53.656;10.076;2023-03-01T06:25:13;13.15;;;6.25;;
37647;SDS011;23490;53.656;10.076;2023-03-01T06:27:41;14.27;;;6.07;;
37647;SDS011;23490;53.656;10.076;2023-03-01T06:30:08;13.30;;;6.07;;
37647;SDS011;23490;53.656;10.076;2023-03-01T06:32:35;15.65;;;6.20;;
37647;SDS011;23490;53.656;10.076;2023-03-01T06:35:01;11.15;;;5.70;;
37647;SDS011;23490;53.656;10.076;2023-03-01T06:37:26;14.05;;;6.47;;
37647;SDS011;23490;53.656;10.076;2023-03-01T06:39:51;11.70;;;5.97;;
37647;SDS011;23490;53.656;10.076;2023-03-01T06:42:17;14.95;;;6.18;;
37647;SDS011;23490;53.656;10.076;2023-03-01T06:44:43;12.80;;;6.50;;
37647;SDS011;23490;53.656;10.076;2023-03-01T06:47:09;14.45;;;7.00;;
37647;SDS011;23490;53.656;10.076;2023-03-01T06:49:34;14.68;;;6.80;;
37647;SDS011;23490;53.656;10.076;2023-03-01T06:52:00;13.23;;;6.50;;
37647;SDS011;23490;53.656;10.076;2023-03-01T06:54:25;17.88;;;6.88;;
37647;SDS011;23490;53.656;10.076;2023-03-01T06:56:51;15.52;;;6.95;;
37647;SDS011;23490;53.656;10.076;2023-03-01T06:59:16;12.48;;;6.13;;
37647;SDS011;23490;53.656;10.076;2023-03-01T07:01:42;13.73;;;6.40;;
37647;SDS011;23490;53.656;10.076;2023-03-01T07:04:08;14.70;;;7.15;;
37647;SDS011;23490;53.656;10.076;2023-03-01T07:06:33;13.18;;;6.15;;
37647;SDS011;23490;53.656;10.076;2023-03-01T07:09:00;11.60;;;5.78;;
37647;SDS011;23490;53.656;10.076;2023-03-01T07:11:25;14.80;;;6.28;;
37647;SDS011;23490;53.656;10.076;2023-03-01T07:13:51;11.30;;;5.47;;
37647;SDS011;23490;53.656;10.076;2023-03-01T07:16:16;12.73;;;5.78;;
37647;SDS011;23490;53.656;10.076;2023-03-01T07:18:42;13.88;;;6.25;;
37647;SDS011;23490;53.656;10.076;2023-03-01T07:21:07;12.75;;;6.10;;
37647;SDS011;23490;53.656;10.076;2023-03-01T07:23:36;13.20;;;5.88;;
37647;SDS011;23490;53.656;10.076;2023-03-01T07:26:01;15.05;;;5.97;;
37647;SDS011;23490;53.656;10.076;2023-03-01T07:28:27;14.30;;;6.80;;
37647;SDS011;23490;53.656;10.076;2023-03-01T07:30:52;13.50;;;6.22;;
37647;SDS011;23490;53.656;10.076;2023-03-01T07:33:18;10.65;;;6.13;;
37647;SDS011;23490;53.656;10.076;2023-03-01T07:35:43;11.57;;;6.20;;
37647;SDS011;23490;53.656;10.076;2023-03-01T07:38:09;13.30;;;6.93;;
37647;SDS011;23490;53.656;10.076;2023-03-01T07:40:35;14.18;;;7.13;;
37647;SDS011;23490;53.656;10.076;2023-03-01T07:43:01;16.25;;;6.97;;
37647;SDS011;23490;53.656;10.076;2023-03-01T07:45:26;10.90;;;6.18;;
37647;SDS011;23490;53.656;10.076;2023-03-01T07:47:53;14.13;;;6.75;;
37647;SDS011;23490;53.656;10.076;2023-03-01T07:50:19;15.23;;;6.45;;
37647;SDS011;23490;53.656;10.076;2023-03-01T07:52:45;14.60;;;7.07;;
37647;SDS011;23490;53.656;10.076;2023-03-01T07:55:11;14.70;;;7.57;;
37647;SDS011;23490;53.656;10.076;2023-03-01T07:57:38;16.00;;;7.60;;
37647;SDS011;23490;53.656;10.076;2023-03-01T08:00:04;14.68;;;7.63;;
37647;SDS011;23490;53.656;10.076;2023-03-01T08:02:30;16.75;;;7.57;;
37647;SDS011;23490;53.656;10.076;2023-03-01T08:04:56;15.00;;;7.07;;
37647;SDS011;23490;53.656;10.076;2023-03-01T08:07:21;16.13;;;8.00;;
37647;SDS011;23490;53.656;10.076;2023-03-01T08:09:46;16.85;;;7.85;;
37647;SDS011;23490;53.656;10.076;2023-03-01T08:12:12;15.35;;;8.27;;
37647;SDS011;23490;53.656;10.076;2023-03-01T08:14:37;14.45;;;8.50;;
37647;SDS011;23490;53.656;10.076;2023-03-01T08:17:02;15.77;;;8.27;;
37647;SDS011;23490;53.656;10.076;2023-03-01T08:19:28;16.58;;;8.15;;
37647;SDS011;23490;53.656;10.076;2023-03-01T08:21:54;19.48;;;8.63;;
37647;SDS011;23490;53.656;10.076;2023-03-01T08:24:23;14.27;;;8.50;;
37647;SDS011;23490;53.656;10.076;2023-03-01T08:26:48;19.63;;;8.77;;
37647;SDS011;23490;53.656;10.076;2023-03-01T08:29:14;15.10;;;7.82;;
37647;SDS011;23490;53.656;10.076;2023-03-01T08:31:39;18.58;;;8.38;;
37647;SDS011;23490;53.656;10.076;2023-03-01T08:34:06;13.50;;;8.07;;
37647;SDS011;23490;53.656;10.076;2023-03-01T08:36:38;19.27;;;9.18;;
37647;SDS011;23490;53.656;10.076;2023-03-01T08:39:05;15.68;;;8.38;;
37647;SDS011;23490;53.656;10.076;2023-03-01T08:41:32;16.67;;;8.70;;
37647;SDS011;23490;53.656;10.076;2023-03-01T08:43:58;16.98;;;8.68;;
37647;SDS011;23490;53.656;10.076;2023-03-01T08:46:34;15.77;;;8.95;;
37647;SDS011;23490;53.656;10.076;2023-03-01T08:49:04;13.68;;;8.07;;
37647;SDS011;23490;53.656;10.076;2023-03-01T08:51:34;18.13;;;8.85;;
37647;SDS011;23490;53.656;10.076;2023-03-01T08:54:05;25.88;;;9.38;;
37647;SDS011;23490;53.656;10.076;2023-03-01T08:58:57;15.43;;;8.88;;
37647;SDS011;23490;53.656;10.076;2023-03-01T09:01:23;20.30;;;9.73;;
37647;SDS011;23490;53.656;10.076;2023-03-01T09:03:48;15.55;;;8.45;;
37647;SDS011;23490;53.656;10.076;2023-03-01T09:06:14;17.55;;;8.35;;
37647;SDS011;23490;53.656;10.076;2023-03-01T09:08:40;20.50;;;8.27;;
37647;SDS011;23490;53.656;10.076;2023-03-01T09:11:09;17.75;;;8.52;;
37647;SDS011;23490;53.656;10.076;2023-03-01T09:13:36;29.52;;;9.75;;
37647;SDS011;23490;53.656;10.076;2023-03-01T09:16:02;19.05;;;9.38;;
37647;SDS011;23490;53.656;10.076;2023-03-01T09:18:29;16.70;;;9.02;;
37647;SDS011;23490;53.656;10.076;2023-03-01T09:21:04;19.10;;;8.45;;
37647;SDS011;23490;53.656;10.076;2023-03-01T09:23:39;16.08;;;8.27;;
37647;SDS011;23490;53.656;10.076;2023-03-01T09:26:06;15.18;;;8.45;;
37647;SDS011;23490;53.656;10.076;2023-03-01T09:28:34;16.95;;;8.55;;
37647;SDS011;23490;53.656;10.076;2023-03-01T09:31:00;17.45;;;8.50;;
37647;SDS011;23490;53.656;10.076;2023-03-01T09:33:27;16.00;;;8.43;;
37647;SDS011;23490;53.656;10.076;2023-03-01T09:35:57;16.33;;;8.43;;
37647;SDS011;23490;53.656;10.076;2023-03-01T09:38:27;17.23;;;9.32;;
37647;SDS011;23490;53.656;10.076;2023-03-01T09:40:52;18.77;;;9.02;;
37647;SDS011;23490;53.656;10.076;2023-03-01T09:43:20;14.40;;;7.72;;
37647;SDS011;23490;53.656;10.076;2023-03-01T09:45:56;14.95;;;8.05;;
37647;SDS011;23490;53.656;10.076;2023-03-01T09:48:26;15.98;;;8.52;;
37647;SDS011;23490;53.656;10.076;2023-03-01T09:50:54;17.38;;;8.85;;
37647;SDS011;23490;53.656;10.076;2023-03-01T09:53:22;14.52;;;7.88;;
37647;SDS011;23490;53.656;10.076;2023-03-01T09:55:55;17.58;;;8.23;;
37647;SDS011;23490;53.656;10.076;2023-03-01T10:04:22;13.05;;;7.55;;
37647;SDS011;23490;53.656;10.076;2023-03-01T10:09:40;17.65;;;9.05;;
37647;SDS011;23490;53.656;10.076;2023-03-01T10:12:17;14.18;;;7.70;;
37647;SDS011;23490;53.656;10.076;2023-03-01T10:14:49;15.85;;;7.88;;
37647;SDS011;23490;53.656;10.076;2023-03-01T10:17:26;17.83;;;8.65;;
37647;SDS011;23490;53.656;10.076;2023-03-01T10:20:05;16.98;;;8.30;;
37647;SDS011;23490;53.656;10.076;2023-03-01T10:23:11;14.48;;;7.18;;
37647;SDS011;23490;53.656;10.076;2023-03-01T10:25:44;13.45;;;7.63;;
37647;SDS011;23490;53.656;10.076;2023-03-01T10:28:39;16.20;;;8.25;;
37647;SDS011;23490;53.656;10.076;2023-03-01T10:31:11;11.55;;;7.65;;
37647;SDS011;23490;53.656;10.076;2023-03-01T10:33:39;12.55;;;7.15;;
37647;SDS011;23490;53.656;10.076;2023-03-01T10:36:06;11.82;;;6.53;;
37647;SDS011;23490;53.656;10.076;2023-03-01T10:38:43;11.73;;;6.35;;
37647;SDS011;23490;53.656;10.076;2023-03-01T10:41:19;11.88;;;6.50;;
37647;SDS011;23490;53.656;10.076;2023-03-01T10:43:52;13.00;;;6.47;;
37647;SDS011;23490;53.656;10.076;2023-03-01T10:46:26;13.43;;;6.68;;
37647;SDS011;23490;53.656;10.076;2023-03-01T10:49:14;11.60;;;6.15;;
37647;SDS011;23490;53.656;10.076;2023-03-01T10:51:42;11.18;;;5.57;;
37647;SDS011;23490;53.656;10.076;2023-03-01T10:54:16;9.63;;;5.50;;
37647;SDS011;23490;53.656;10.076;2023-03-01T10:56:56;10.07;;;5.13;;
37647;SDS011;23490;53.656;10.076;2023-03-01T11:04:34;9.68;;;5.05;;
37647;SDS011;23490;53.656;10.076;2023-03-01T11:07:00;8.38;;;4.53;;
37647;SDS011;23490;53.656;10.076;2023-03-01T11:09:30;7.32;;;4.00;;
37647;SDS011;23490;53.656;10.076;2023-03-01T11:12:02;8.45;;;4.97;;
37647;SDS011;23490;53.656;10.076;2023-03-01T11:14:35;10.52;;;5.63;;
37647;SDS011;23490;53.656;10.076;2023-03-01T11:17:03;9.60;;;5.63;;
37647;SDS011;23490;53.656;10.076;2023-03-01T11:19:31;8.32;;;4.85;;
37647;SDS011;23490;53.656;10.076;2023-03-01T11:22:14;9.88;;;5.07;;
37647;SDS011;23490;53.656;10.076;2023-03-01T11:24:46;9.02;;;5.13;;
37647;SDS011;23490;53.656;10.076;2023-03-01T11:27:17;9.45;;;5.18;;
37647;SDS011;23490;53.656;10.076;2023-03-01T11:30:01;10.02;;;4.90;;
37647;SDS011;23490;53.656;10.076;2023-03-01T11:32:40;11.38;;;5.10;;
37647;SDS011;23490;53.656;10.076;2023-03-01T11:35:14;7.72;;;5.10;;
37647;SDS011;23490;53.656;10.076;2023-03-01T11:41:06;9.68;;;5.88;;
37647;SDS011;23490;53.656;10.076;2023-03-01T11:49:08;8.70;;;5.57;;
37647;SDS011;23490;53.656;10.076;2023-03-01T11:54:30;8.77;;;5.15;;
37647;SDS011;23490;53.656;10.076;2023-03-01T12:08:14;7.55;;;4.68;;
37647;SDS011;23490;53.656;10.076;2023-03-01T12:10:57;11.10;;;4.87;;
37647;SDS011;23490;53.656;10.076;2023-03-01T12:14:01;8.60;;;5.03;;
37647;SDS011;23490;53.656;10.076;2023-03-01T12:19:39;8.70;;;5.57;;
37647;SDS011;23490;53.656;10.076;2023-03-01T12:27:57;9.23;;;4.53;;
37647;SDS011;23490;53.656;10.076;2023-03-01T12:36:13;7.10;;;4.22;;
37647;SDS011;23490;53.656;10.076;2023-03-01T12:49:59;6.97;;;3.90;;
37647;SDS011;23490;53.656;10.076;2023-03-01T12:55:18;5.85;;;3.67;;
37647;SDS011;23490;53.656;10.076;2023-03-01T12:57:53;5.55;;;3.47;;
37647;SDS011;23490;53.656;10.076;2023-03-01T13:00:40;6.38;;;3.50;;
37647;SDS011;23490;53.656;10.076;2023-03-01T13:06:19;6.00;;;3.40;;
37647;SDS011;23490;53.656;10.076;2023-03-01T13:11:31;4.70;;;2.72;;
37647;SDS011;23490;53.656;10.076;2023-03-01T13:14:34;5.53;;;3.28;;
37647;SDS011;23490;53.656;10.076;2023-03-01T13:16:53;5.07;;;2.90;;
37647;SDS011;23490;53.656;10.076;2023-03-01T13:19:26;4.80;;;2.53;;
37647;SDS011;23490;53.656;10.076;2023-03-01T13:22:01;5.22;;;2.85;;
37647;SDS011;23490;53.656;10.076;2023-03-01T13:25:02;6.53;;;2.80;;
37647;SDS011;23490;53.656;10.076;2023-03-01T13:27:38;4.20;;;2.30;;
37647;SDS011;23490;53.656;10.076;2023-03-01T13:30:04;5.60;;;2.60;;
37647;SDS011;23490;53.656;10.076;2023-03-01T13:32:49;5.57;;;2.67;;
37647;SDS011;23490;53.656;10.076;2023-03-01T13:37:41;6.85;;;3.05;;
37647;SDS011;23490;53.656;10.076;2023-03-01T13:42:46;5.75;;;3.08;;
37647;SDS011;23490;53.656;10.076;2023-03-01T13:45:35;6.65;;;3.67;;
37647;SDS011;23490;53.656;10.076;2023-03-01T13:48:08;5.70;;;3.08;;
37647;SDS011;23490;53.656;10.076;2023-03-01T13:50:38;5.72;;;3.63;;
37647;SDS011;23490;53.656;10.076;2023-03-01T13:53:10;7.88;;;3.90;;
37647;SDS011;23490;53.656;10.076;2023-03-01T13:55:43;8.63;;;4.22;;
37647;SDS011;23490;53.656;10.076;2023-03-01T13:58:30;7.93;;;4.35;;
37647;SDS011;23490;53.656;10.076;2023-03-01T14:01:05;6.45;;;3.72;;
37647;SDS011;23490;53.656;10.076;2023-03-01T14:03:34;7.43;;;4.03;;
37647;SDS011;23490;53.656;10.076;2023-03-01T14:06:13;6.63;;;3.35;;
37647;SDS011;23490;53.656;10.076;2023-03-01T14:08:46;6.65;;;3.67;;
37647;SDS011;23490;53.656;10.076;2023-03-01T14:19:30;6.60;;;4.15;;
37647;SDS011;23490;53.656;10.076;2023-03-01T14:24:28;7.57;;;4.00;;
37647;SDS011;23490;53.656;10.076;2023-03-01T14:26:57;6.25;;;3.88;;
37647;SDS011;23490;53.656;10.076;2023-03-01T14:29:24;6.85;;;4.13;;
37647;SDS011;23490;53.656;10.076;2023-03-01T14:32:07;6.35;;;3.60;;
37647;SDS011;23490;53.656;10.076;2023-03-01T14:34:45;5.10;;;3.13;;
37647;SDS011;23490;53.656;10.076;2023-03-01T14:37:26;6.25;;;3.55;;
37647;SDS011;23490;53.656;10.076;2023-03-01T14:39:54;5.40;;;2.97;;
37647;SDS011;23490;53.656;10.076;2023-03-01T14:42:21;5.82;;;2.70;;
37647;SDS011;23490;53.656;10.076;2023-03-01T14:44:49;5.63;;;2.75;;
37647;SDS011;23490;53.656;10.076;2023-03-01T14:47:29;5.30;;;2.50;;
37647;SDS011;23490;53.656;10.076;2023-03-01T14:49:58;4.68;;;2.67;;
37647;SDS011;23490;53.656;10.076;2023-03-01T14:52:36;7.45;;;3.60;;
37647;SDS011;23490;53.656;10.076;2023-03-01T14:55:05;7.75;;;4.30;;
37647;SDS011;23490;53.656;10.076;2023-03-01T14:57:42;6.07;;;3.08;;
37647;SDS011;23490;53.656;10.076;2023-03-01T15:00:10;6.78;;;3.50;;
37647;SDS011;23490;53.656;10.076;2023-03-01T15:02:44;6.15;;;2.75;;
37647;SDS011;23490;53.656;10.076;2023-03-01T15:05:13;6.43;;;3.40;;
37647;SDS011;23490;53.656;10.076;2023-03-01T15:07:40;5.30;;;3.08;;
37647;SDS011;23490;53.656;10.076;2023-03-01T15:10:32;7.82;;;3.40;;
37647;SDS011;23490;53.656;10.076;2023-03-01T15:15:48;6.80;;;3.80;;
37647;SDS011;23490;53.656;10.076;2023-03-01T15:20:47;6.63;;;3.63;;
37647;SDS011;23490;53.656;10.076;2023-03-01T15:25:53;9.65;;;4.30;;
37647;SDS011;23490;53.656;10.076;2023-03-01T15:28:32;7.35;;;4.03;;
37647;SDS011;23490;53.656;10.076;2023-03-01T15:34:07;8.20;;;4.28;;
37647;SDS011;23490;53.656;10.076;2023-03-01T15:36:49;6.88;;;3.97;;
37647;SDS011;23490;53.656;10.076;2023-03-01T15:42:08;9.52;;;4.10;;
37647;SDS011;23490;53.656;10.076;2023-03-01T15:45:06;7.90;;;4.32;;
37647;SDS011;23490;53.656;10.076;2023-03-01T15:47:36;8.20;;;4.28;;
37647;SDS011;23490;53.656;10.076;2023-03-01T15:50:05;10.02;;;4.68;;
37647;SDS011;23490;53.656;10.076;2023-03-01T15:52:42;9.82;;;4.43;;
37647;SDS011;23490;53.656;10.076;2023-03-01T15:58:04;11.75;;;5.35;;
37647;SDS011;23490;53.656;10.076;2023-03-01T16:00:34;10.20;;;5.15;;
37647;SDS011;23490;53.656;10.076;2023-03-01T16:02:59;12.55;;;6.28;;
37647;SDS011;23490;53.656;10.076;2023-03-01T16:05:26;12.40;;;5.85;;
37647;SDS011;23490;53.656;10.076;2023-03-01T16:07:55;14.38;;;6.45;;
37647;SDS011;23490;53.656;10.076;2023-03-01T16:10:21;11.98;;;6.38;;
37647;SDS011;23490;53.656;10.076;2023-03-01T16:12:46;12.93;;;6.22;;
37647;SDS011;23490;53.656;10.076;2023-03-01T16:15:17;11.48;;;6.47;;
37647;SDS011;23490;53.656;10.076;2023-03-01T16:17:44;12.73;;;6.53;;
37647;SDS011;23490;53.656;10.076;2023-03-01T16:20:10;13.07;;;7.40;;
37647;SDS011;23490;53.656;10.076;2023-03-01T16:22:36;16.52;;;7.25;;
37647;SDS011;23490;53.656;10.076;2023-03-01T16:25:01;14.23;;;7.18;;
37647;SDS011;23490;53.656;10.076;2023-03-01T16:27:28;11.15;;;6.07;;
37647;SDS011;23490;53.656;10.076;2023-03-01T16:29:53;13.38;;;6.57;;
37647;SDS011;23490;53.656;10.076;2023-03-01T16:32:19;10.82;;;5.43;;
37647;SDS011;23490;53.656;10.076;2023-03-01T16:34:44;11.25;;;5.60;;
37647;SDS011;23490;53.656;10.076;2023-03-01T16:37:10;11.27;;;6.30;;